sensor_id;sensor_type;location;lat;lon;timestamp;P1;durP1;ratioP1;P2;durP2;ratioP2
55037;SDS011;40937;53.594;10.034;2022-11-20T00:01:15;5.22;;;3.40;;
55037;SDS011;40937;53.594;10.034;2022-11-20T00:03:44;7.10;;;3.85;;
55037;SDS011;40937;53.594;10.034;2022-11-20T00:06:11;6.03;;;3.78;;
55037;SDS011;40937;53.594;10.034;2022-11-20T00:08:39;5.30;;;4.70;;
55037;SDS011;40937;53.594;10.034;2022-11-20T00:11:06;4.18;;;3.88;;
55037;SDS011;40937;53.594;10.034;2022-11-20T00:13:35;5.07;;;3.50;;
55037;SDS011;40937;53.594;10.034;2022-11-20T00:16:05;4.38;;;3.97;;
55037;SDS011;40937;53.594;10.034;2022-11-20T00:18:33;3.83;;;3.53;;
55037;SDS011;40937;53.594;10.034;2022-11-20T00:21:01;5.60;;;4.05;;
55037;SDS011;40937;53.594;10.034;2022-11-20T00:23:28;4.50;;;3.55;;
55037;SDS011;40937;53.594;10.034;2022-11-20T00:25:55;4.68;;;3.67;;
55037;SDS011;40937;53.594;10.034;2022-11-20T00:28:22;5.05;;;4.05;;
55037;SDS011;40937;53.594;10.034;2022-11-20T00:30:48;7.25;;;3.58;;
55037;SDS011;40937;53.594;10.034;2022-11-20T00:33:16;3.88;;;3.28;;
55037;SDS011;40937;53.594;10.034;2022-11-20T00:35:43;5.65;;;4.07;;
55037;SDS011;40937;53.594;10.034;2022-11-20T00:38:10;3.78;;;3.40;;
55037;SDS011;40937;53.594;10.034;2022-11-20T00:40:37;4.20;;;3.67;;
55037;SDS011;40937;53.594;10.034;2022-11-20T00:43:03;5.18;;;4.18;;
55037;SDS011;40937;53.594;10.034;2022-11-20T00:45:30;5.30;;;3.42;;
55037;SDS011;40937;53.594;10.034;2022-11-20T00:47:57;5.05;;;3.92;;
55037;SDS011;40937;53.594;10.034;2022-11-20T00:50:25;3.45;;;3.15;;
55037;SDS011;40937;53.594;10.034;2022-11-20T00:52:51;4.28;;;3.70;;
55037;SDS011;40937;53.594;10.034;2022-11-20T00:55:18;4.88;;;3.35;;
55037;SDS011;40937;53.594;10.034;2022-11-20T00:57:45;3.67;;;3.47;;
55037;SDS011;40937;53.594;10.034;2022-11-20T01:00:11;4.35;;;3.67;;
55037;SDS011;40937;53.594;10.034;2022-11-20T01:02:38;4.05;;;3.65;;
55037;SDS011;40937;53.594;10.034;2022-11-20T01:05:05;5.00;;;3.67;;
55037;SDS011;40937;53.594;10.034;2022-11-20T01:07:34;5.57;;;3.28;;
55037;SDS011;40937;53.594;10.034;2022-11-20T01:10:00;3.80;;;3.50;;
55037;SDS011;40937;53.594;10.034;2022-11-20T01:12:27;6.78;;;3.42;;
55037;SDS011;40937;53.594;10.034;2022-11-20T01:14:54;4.47;;;4.10;;
55037;SDS011;40937;53.594;10.034;2022-11-20T01:17:20;6.10;;;3.60;;
55037;SDS011;40937;53.594;10.034;2022-11-20T01:19:48;5.00;;;3.53;;
55037;SDS011;40937;53.594;10.034;2022-11-20T01:22:15;6.88;;;3.40;;
55037;SDS011;40937;53.594;10.034;2022-11-20T01:24:43;3.58;;;3.28;;
55037;SDS011;40937;53.594;10.034;2022-11-20T01:27:10;5.72;;;3.95;;
55037;SDS011;40937;53.594;10.034;2022-11-20T01:29:36;3.97;;;3.70;;
55037;SDS011;40937;53.594;10.034;2022-11-20T01:32:03;4.32;;;3.22;;
55037;SDS011;40937;53.594;10.034;2022-11-20T01:34:30;6.22;;;3.78;;
55037;SDS011;40937;53.594;10.034;2022-11-20T01:36:57;3.70;;;3.40;;
55037;SDS011;40937;53.594;10.034;2022-11-20T01:39:24;4.88;;;3.55;;
55037;SDS011;40937;53.594;10.034;2022-11-20T01:41:54;4.18;;;3.60;;
55037;SDS011;40937;53.594;10.034;2022-11-20T01:47:28;5.95;;;3.15;;
55037;SDS011;40937;53.594;10.034;2022-11-20T01:49:59;3.53;;;3.22;;
55037;SDS011;40937;53.594;10.034;2022-11-20T01:52:30;4.80;;;3.55;;
55037;SDS011;40937;53.594;10.034;2022-11-20T01:57:39;4.05;;;3.60;;
55037;SDS011;40937;53.594;10.034;2022-11-20T02:00:08;6.85;;;3.90;;
55037;SDS011;40937;53.594;10.034;2022-11-20T02:02:40;4.90;;;3.97;;
55037;SDS011;40937;53.594;10.034;2022-11-20T02:05:11;3.97;;;3.63;;
55037;SDS011;40937;53.594;10.034;2022-11-20T02:07:44;4.35;;;3.95;;
55037;SDS011;40937;53.594;10.034;2022-11-20T02:10:12;3.72;;;3.50;;
55037;SDS011;40937;53.594;10.034;2022-11-20T02:12:41;4.03;;;3.72;;
55037;SDS011;40937;53.594;10.034;2022-11-20T02:15:26;5.07;;;3.90;;
55037;SDS011;40937;53.594;10.034;2022-11-20T02:17:53;3.70;;;3.40;;
55037;SDS011;40937;53.594;10.034;2022-11-20T02:20:20;4.15;;;3.25;;
55037;SDS011;40937;53.594;10.034;2022-11-20T02:22:47;4.72;;;3.60;;
55037;SDS011;40937;53.594;10.034;2022-11-20T02:25:22;4.65;;;3.92;;
55037;SDS011;40937;53.594;10.034;2022-11-20T02:27:50;3.70;;;3.35;;
55037;SDS011;40937;53.594;10.034;2022-11-20T02:30:17;5.93;;;3.63;;
55037;SDS011;40937;53.594;10.034;2022-11-20T02:32:44;4.45;;;4.05;;
55037;SDS011;40937;53.594;10.034;2022-11-20T02:38:10;5.55;;;4.43;;
55037;SDS011;40937;53.594;10.034;2022-11-20T02:40:38;7.90;;;3.97;;
55037;SDS011;40937;53.594;10.034;2022-11-20T02:43:05;5.68;;;4.15;;
55037;SDS011;40937;53.594;10.034;2022-11-20T02:45:32;5.35;;;4.32;;
55037;SDS011;40937;53.594;10.034;2022-11-20T02:47:58;3.60;;;3.30;;
55037;SDS011;40937;53.594;10.034;2022-11-20T02:50:25;3.95;;;3.65;;
55037;SDS011;40937;53.594;10.034;2022-11-20T02:52:52;5.30;;;3.75;;
55037;SDS011;40937;53.594;10.034;2022-11-20T02:55:19;4.75;;;3.88;;
55037;SDS011;40937;53.594;10.034;2022-11-20T02:57:47;4.45;;;3.17;;
55037;SDS011;40937;53.594;10.034;2022-11-20T03:00:14;4.95;;;4.45;;
55037;SDS011;40937;53.594;10.034;2022-11-20T03:02:41;4.15;;;3.75;;
55037;SDS011;40937;53.594;10.034;2022-11-20T03:05:08;3.70;;;3.40;;
55037;SDS011;40937;53.594;10.034;2022-11-20T03:07:35;5.38;;;3.38;;
55037;SDS011;40937;53.594;10.034;2022-11-20T03:10:02;4.28;;;3.78;;
55037;SDS011;40937;53.594;10.034;2022-11-20T03:12:29;4.22;;;3.38;;
55037;SDS011;40937;53.594;10.034;2022-11-20T03:14:57;4.68;;;4.28;;
55037;SDS011;40937;53.594;10.034;2022-11-20T03:17:24;3.95;;;3.58;;
55037;SDS011;40937;53.594;10.034;2022-11-20T03:19:50;4.28;;;3.47;;
55037;SDS011;40937;53.594;10.034;2022-11-20T03:22:17;5.75;;;3.67;;
55037;SDS011;40937;53.594;10.034;2022-11-20T03:24:44;3.83;;;3.38;;
55037;SDS011;40937;53.594;10.034;2022-11-20T03:27:11;3.80;;;3.10;;
55037;SDS011;40937;53.594;10.034;2022-11-20T03:29:37;3.80;;;3.50;;
55037;SDS011;40937;53.594;10.034;2022-11-20T03:32:06;4.15;;;3.75;;
55037;SDS011;40937;53.594;10.034;2022-11-20T03:34:32;3.80;;;3.50;;
55037;SDS011;40937;53.594;10.034;2022-11-20T03:36:59;4.65;;;4.03;;
55037;SDS011;40937;53.594;10.034;2022-11-20T03:39:26;5.30;;;3.70;;
55037;SDS011;40937;53.594;10.034;2022-11-20T03:41:52;4.45;;;3.25;;
55037;SDS011;40937;53.594;10.034;2022-11-20T03:44:20;4.28;;;3.20;;
55037;SDS011;40937;53.594;10.034;2022-11-20T03:46:48;3.85;;;3.25;;
55037;SDS011;40937;53.594;10.034;2022-11-20T03:49:16;3.72;;;3.42;;
55037;SDS011;40937;53.594;10.034;2022-11-20T03:51:42;6.55;;;3.88;;
55037;SDS011;40937;53.594;10.034;2022-11-20T03:54:09;5.00;;;4.03;;
55037;SDS011;40937;53.594;10.034;2022-11-20T03:56:37;4.68;;;3.97;;
55037;SDS011;40937;53.594;10.034;2022-11-20T03:59:04;4.82;;;3.28;;
55037;SDS011;40937;53.594;10.034;2022-11-20T04:01:32;4.72;;;3.58;;
55037;SDS011;40937;53.594;10.034;2022-11-20T04:04:00;4.35;;;4.05;;
55037;SDS011;40937;53.594;10.034;2022-11-20T04:06:30;3.85;;;3.47;;
55037;SDS011;40937;53.594;10.034;2022-11-20T04:08:59;3.10;;;2.75;;
55037;SDS011;40937;53.594;10.034;2022-11-20T04:11:26;3.08;;;2.88;;
55037;SDS011;40937;53.594;10.034;2022-11-20T04:13:55;4.22;;;3.58;;
55037;SDS011;40937;53.594;10.034;2022-11-20T04:16:23;3.28;;;3.00;;
55037;SDS011;40937;53.594;10.034;2022-11-20T04:18:51;3.22;;;3.03;;
55037;SDS011;40937;53.594;10.034;2022-11-20T04:21:19;5.38;;;3.15;;
55037;SDS011;40937;53.594;10.034;2022-11-20T04:23:48;3.80;;;3.50;;
55037;SDS011;40937;53.594;10.034;2022-11-20T04:26:15;3.67;;;3.38;;
55037;SDS011;40937;53.594;10.034;2022-11-20T04:28:42;3.25;;;3.00;;
55037;SDS011;40937;53.594;10.034;2022-11-20T04:31:10;3.90;;;3.60;;
55037;SDS011;40937;53.594;10.034;2022-11-20T04:33:38;4.90;;;3.80;;
55037;SDS011;40937;53.594;10.034;2022-11-20T04:36:07;5.82;;;3.33;;
55037;SDS011;40937;53.594;10.034;2022-11-20T04:38:36;5.40;;;4.07;;
55037;SDS011;40937;53.594;10.034;2022-11-20T04:41:05;3.92;;;3.63;;
55037;SDS011;40937;53.594;10.034;2022-11-20T04:43:33;3.80;;;3.50;;
55037;SDS011;40937;53.594;10.034;2022-11-20T04:46:00;3.85;;;3.50;;
55037;SDS011;40937;53.594;10.034;2022-11-20T04:48:28;3.75;;;3.45;;
55037;SDS011;40937;53.594;10.034;2022-11-20T04:50:55;4.43;;;3.17;;
55037;SDS011;40937;53.594;10.034;2022-11-20T04:53:23;5.35;;;3.35;;
55037;SDS011;40937;53.594;10.034;2022-11-20T04:55:50;4.70;;;3.58;;
55037;SDS011;40937;53.594;10.034;2022-11-20T04:58:18;3.42;;;3.13;;
55037;SDS011;40937;53.594;10.034;2022-11-20T05:00:44;3.80;;;3.50;;
55037;SDS011;40937;53.594;10.034;2022-11-20T05:03:11;4.10;;;3.80;;
55037;SDS011;40937;53.594;10.034;2022-11-20T05:05:38;6.65;;;3.85;;
55037;SDS011;40937;53.594;10.034;2022-11-20T05:08:04;4.97;;;3.35;;
55037;SDS011;40937;53.594;10.034;2022-11-20T05:10:31;4.18;;;3.78;;
55037;SDS011;40937;53.594;10.034;2022-11-20T05:12:58;3.58;;;3.28;;
55037;SDS011;40937;53.594;10.034;2022-11-20T05:15:26;4.13;;;3.72;;
55037;SDS011;40937;53.594;10.034;2022-11-20T05:17:53;4.60;;;4.20;;
55037;SDS011;40937;53.594;10.034;2022-11-20T05:20:19;4.10;;;3.80;;
55037;SDS011;40937;53.594;10.034;2022-11-20T05:22:46;3.83;;;3.53;;
55037;SDS011;40937;53.594;10.034;2022-11-20T05:25:13;4.07;;;3.78;;
55037;SDS011;40937;53.594;10.034;2022-11-20T05:27:39;4.85;;;3.65;;
55037;SDS011;40937;53.594;10.034;2022-11-20T05:30:07;4.60;;;3.70;;
55037;SDS011;40937;53.594;10.034;2022-11-20T05:32:36;5.50;;;4.07;;
55037;SDS011;40937;53.594;10.034;2022-11-20T05:35:02;5.20;;;4.15;;
55037;SDS011;40937;53.594;10.034;2022-11-20T05:37:29;6.68;;;3.67;;
55037;SDS011;40937;53.594;10.034;2022-11-20T05:39:56;5.70;;;3.78;;
55037;SDS011;40937;53.594;10.034;2022-11-20T05:42:23;5.35;;;3.53;;
55037;SDS011;40937;53.594;10.034;2022-11-20T05:44:58;4.35;;;4.05;;
55037;SDS011;40937;53.594;10.034;2022-11-20T05:47:26;4.90;;;4.05;;
55037;SDS011;40937;53.594;10.034;2022-11-20T05:49:55;6.30;;;4.03;;
55037;SDS011;40937;53.594;10.034;2022-11-20T05:52:21;4.65;;;4.05;;
55037;SDS011;40937;53.594;10.034;2022-11-20T05:54:48;3.80;;;3.50;;
55037;SDS011;40937;53.594;10.034;2022-11-20T05:57:15;4.47;;;3.80;;
55037;SDS011;40937;53.594;10.034;2022-11-20T05:59:42;4.45;;;4.05;;
55037;SDS011;40937;53.594;10.034;2022-11-20T06:02:09;4.35;;;3.95;;
55037;SDS011;40937;53.594;10.034;2022-11-20T06:07:12;5.40;;;4.25;;
55037;SDS011;40937;53.594;10.034;2022-11-20T06:09:38;4.43;;;4.10;;
55037;SDS011;40937;53.594;10.034;2022-11-20T06:12:05;4.25;;;3.85;;
55037;SDS011;40937;53.594;10.034;2022-11-20T06:14:33;4.18;;;3.88;;
55037;SDS011;40937;53.594;10.034;2022-11-20T06:17:00;4.10;;;3.80;;
55037;SDS011;40937;53.594;10.034;2022-11-20T06:19:27;6.43;;;3.97;;
55037;SDS011;40937;53.594;10.034;2022-11-20T06:21:53;5.20;;;4.70;;
55037;SDS011;40937;53.594;10.034;2022-11-20T06:24:21;5.43;;;4.78;;
55037;SDS011;40937;53.594;10.034;2022-11-20T06:26:50;5.85;;;5.43;;
55037;SDS011;40937;53.594;10.034;2022-11-20T06:29:17;6.70;;;6.10;;
55037;SDS011;40937;53.594;10.034;2022-11-20T06:31:43;6.38;;;5.78;;
55037;SDS011;40937;53.594;10.034;2022-11-20T06:34:10;6.28;;;5.88;;
55037;SDS011;40937;53.594;10.034;2022-11-20T06:36:37;6.35;;;5.85;;
55037;SDS011;40937;53.594;10.034;2022-11-20T06:39:03;8.07;;;6.25;;
55037;SDS011;40937;53.594;10.034;2022-11-20T06:41:32;7.32;;;6.63;;
55037;SDS011;40937;53.594;10.034;2022-11-20T06:43:58;9.60;;;6.63;;
55037;SDS011;40937;53.594;10.034;2022-11-20T06:46:25;7.95;;;7.35;;
55037;SDS011;40937;53.594;10.034;2022-11-20T06:48:52;8.25;;;7.47;;
55037;SDS011;40937;53.594;10.034;2022-11-20T06:51:19;6.88;;;6.28;;
55037;SDS011;40937;53.594;10.034;2022-11-20T06:53:46;6.93;;;6.32;;
55037;SDS011;40937;53.594;10.034;2022-11-20T06:56:13;6.97;;;6.38;;
55037;SDS011;40937;53.594;10.034;2022-11-20T06:58:41;7.38;;;6.68;;
55037;SDS011;40937;53.594;10.034;2022-11-20T07:01:09;6.35;;;5.95;;
55037;SDS011;40937;53.594;10.034;2022-11-20T07:03:37;6.97;;;5.47;;
55037;SDS011;40937;53.594;10.034;2022-11-20T07:06:05;7.78;;;6.15;;
55037;SDS011;40937;53.594;10.034;2022-11-20T07:08:32;6.47;;;5.97;;
55037;SDS011;40937;53.594;10.034;2022-11-20T07:11:00;8.32;;;5.95;;
55037;SDS011;40937;53.594;10.034;2022-11-20T07:13:28;6.35;;;5.82;;
55037;SDS011;40937;53.594;10.034;2022-11-20T07:16:00;6.40;;;5.80;;
55037;SDS011;40937;53.594;10.034;2022-11-20T07:18:28;6.40;;;5.90;;
55037;SDS011;40937;53.594;10.034;2022-11-20T07:20:54;5.32;;;4.93;;
55037;SDS011;40937;53.594;10.034;2022-11-20T07:23:21;7.88;;;6.72;;
55037;SDS011;40937;53.594;10.034;2022-11-20T07:25:48;5.45;;;5.05;;
55037;SDS011;40937;53.594;10.034;2022-11-20T07:28:15;5.25;;;4.85;;
55037;SDS011;40937;53.594;10.034;2022-11-20T07:30:41;6.32;;;5.72;;
55037;SDS011;40937;53.594;10.034;2022-11-20T07:33:09;6.35;;;5.20;;
55037;SDS011;40937;53.594;10.034;2022-11-20T07:35:36;6.20;;;5.18;;
55037;SDS011;40937;53.594;10.034;2022-11-20T07:38:03;5.60;;;5.18;;
55037;SDS011;40937;53.594;10.034;2022-11-20T07:40:30;5.38;;;4.88;;
55037;SDS011;40937;53.594;10.034;2022-11-20T07:42:56;6.40;;;4.88;;
55037;SDS011;40937;53.594;10.034;2022-11-20T07:45:23;6.05;;;5.10;;
55037;SDS011;40937;53.594;10.034;2022-11-20T07:47:50;5.03;;;4.63;;
55037;SDS011;40937;53.594;10.034;2022-11-20T07:50:19;6.55;;;4.80;;
55037;SDS011;40937;53.594;10.034;2022-11-20T07:52:46;4.82;;;4.43;;
55037;SDS011;40937;53.594;10.034;2022-11-20T07:55:13;5.57;;;4.95;;
55037;SDS011;40937;53.594;10.034;2022-11-20T07:57:40;6.05;;;4.63;;
55037;SDS011;40937;53.594;10.034;2022-11-20T08:00:08;6.35;;;4.63;;
55037;SDS011;40937;53.594;10.034;2022-11-20T08:02:39;4.97;;;4.57;;
55037;SDS011;40937;53.594;10.034;2022-11-20T08:05:07;5.63;;;5.20;;
55037;SDS011;40937;53.594;10.034;2022-11-20T08:07:36;5.65;;;5.22;;
55037;SDS011;40937;53.594;10.034;2022-11-20T08:10:04;5.28;;;4.78;;
55037;SDS011;40937;53.594;10.034;2022-11-20T08:12:31;5.05;;;4.65;;
55037;SDS011;40937;53.594;10.034;2022-11-20T08:15:16;5.32;;;4.85;;
55037;SDS011;40937;53.594;10.034;2022-11-20T08:17:42;4.80;;;4.45;;
55037;SDS011;40937;53.594;10.034;2022-11-20T08:20:09;5.13;;;4.68;;
55037;SDS011;40937;53.594;10.034;2022-11-20T08:22:38;4.85;;;4.55;;
55037;SDS011;40937;53.594;10.034;2022-11-20T08:25:05;5.47;;;4.95;;
55037;SDS011;40937;53.594;10.034;2022-11-20T08:27:32;4.82;;;4.40;;
55037;SDS011;40937;53.594;10.034;2022-11-20T08:29:58;4.70;;;4.18;;
55037;SDS011;40937;53.594;10.034;2022-11-20T08:32:25;5.35;;;3.90;;
55037;SDS011;40937;53.594;10.034;2022-11-20T08:34:52;4.43;;;4.03;;
55037;SDS011;40937;53.594;10.034;2022-11-20T08:37:19;4.82;;;3.85;;
55037;SDS011;40937;53.594;10.034;2022-11-20T08:39:47;4.10;;;3.80;;
55037;SDS011;40937;53.594;10.034;2022-11-20T08:42:13;5.18;;;4.38;;
55037;SDS011;40937;53.594;10.034;2022-11-20T08:44:40;5.18;;;3.63;;
55037;SDS011;40937;53.594;10.034;2022-11-20T08:47:08;4.18;;;3.35;;
55037;SDS011;40937;53.594;10.034;2022-11-20T08:49:34;3.83;;;3.53;;
55037;SDS011;40937;53.594;10.034;2022-11-20T08:52:01;3.42;;;3.22;;
55037;SDS011;40937;53.594;10.034;2022-11-20T08:54:28;2.90;;;2.70;;
55037;SDS011;40937;53.594;10.034;2022-11-20T08:56:56;3.55;;;3.30;;
55037;SDS011;40937;53.594;10.034;2022-11-20T08:59:23;3.13;;;2.92;;
55037;SDS011;40937;53.594;10.034;2022-11-20T09:01:49;3.20;;;2.90;;
55037;SDS011;40937;53.594;10.034;2022-11-20T09:04:16;4.00;;;3.70;;
55037;SDS011;40937;53.594;10.034;2022-11-20T09:06:43;3.30;;;3.10;;
55037;SDS011;40937;53.594;10.034;2022-11-20T09:09:10;3.33;;;3.13;;
55037;SDS011;40937;53.594;10.034;2022-11-20T09:11:36;3.30;;;2.92;;
55037;SDS011;40937;53.594;10.034;2022-11-20T09:14:04;3.47;;;3.10;;
55037;SDS011;40937;53.594;10.034;2022-11-20T09:16:31;4.40;;;3.13;;
55037;SDS011;40937;53.594;10.034;2022-11-20T09:18:58;3.88;;;3.28;;
55037;SDS011;40937;53.594;10.034;2022-11-20T09:21:25;3.53;;;3.25;;
55037;SDS011;40937;53.594;10.034;2022-11-20T09:23:52;3.10;;;2.90;;
55037;SDS011;40937;53.594;10.034;2022-11-20T09:26:18;4.55;;;4.15;;
55037;SDS011;40937;53.594;10.034;2022-11-20T09:28:45;3.95;;;3.65;;
55037;SDS011;40937;53.594;10.034;2022-11-20T09:31:17;3.38;;;3.17;;
55037;SDS011;40937;53.594;10.034;2022-11-20T09:33:48;3.67;;;3.33;;
55037;SDS011;40937;53.594;10.034;2022-11-20T09:36:15;4.00;;;3.70;;
55037;SDS011;40937;53.594;10.034;2022-11-20T09:38:43;4.22;;;4.00;;
55037;SDS011;40937;53.594;10.034;2022-11-20T09:41:14;3.60;;;3.38;;
55037;SDS011;40937;53.594;10.034;2022-11-20T09:43:57;3.78;;;3.58;;
55037;SDS011;40937;53.594;10.034;2022-11-20T09:46:33;3.58;;;3.38;;
55037;SDS011;40937;53.594;10.034;2022-11-20T09:49:15;3.63;;;3.42;;
55037;SDS011;40937;53.594;10.034;2022-11-20T09:51:53;4.32;;;4.03;;
55037;SDS011;40937;53.594;10.034;2022-11-20T09:54:26;4.47;;;4.18;;
55037;SDS011;40937;53.594;10.034;2022-11-20T09:56:56;3.53;;;3.33;;
55037;SDS011;40937;53.594;10.034;2022-11-20T09:59:29;4.68;;;3.63;;
55037;SDS011;40937;53.594;10.034;2022-11-20T10:02:06;4.25;;;3.95;;
55037;SDS011;40937;53.594;10.034;2022-11-20T10:04:43;4.20;;;3.63;;
55037;SDS011;40937;53.594;10.034;2022-11-20T10:07:15;3.90;;;3.65;;
55037;SDS011;40937;53.594;10.034;2022-11-20T10:12:18;4.07;;;3.78;;
55037;SDS011;40937;53.594;10.034;2022-11-20T10:14:53;4.35;;;3.95;;
55037;SDS011;40937;53.594;10.034;2022-11-20T10:17:34;4.15;;;3.85;;
55037;SDS011;40937;53.594;10.034;2022-11-20T10:20:17;6.30;;;3.92;;
55037;SDS011;40937;53.594;10.034;2022-11-20T10:22:54;3.60;;;3.33;;
55037;SDS011;40937;53.594;10.034;2022-11-20T10:25:37;3.88;;;3.22;;
55037;SDS011;40937;53.594;10.034;2022-11-20T10:31:13;5.60;;;5.20;;
55037;SDS011;40937;53.594;10.034;2022-11-20T10:33:49;4.07;;;3.72;;
55037;SDS011;40937;53.594;10.034;2022-11-20T10:36:19;3.42;;;3.15;;
55037;SDS011;40937;53.594;10.034;2022-11-20T10:38:50;3.42;;;3.22;;
55037;SDS011;40937;53.594;10.034;2022-11-20T10:41:25;3.47;;;3.28;;
55037;SDS011;40937;53.594;10.034;2022-11-20T10:43:59;4.15;;;3.75;;
55037;SDS011;40937;53.594;10.034;2022-11-20T10:46:33;3.67;;;3.45;;
55037;SDS011;40937;53.594;10.034;2022-11-20T10:49:48;3.20;;;3.05;;
55037;SDS011;40937;53.594;10.034;2022-11-20T10:52:20;3.67;;;3.47;;
55037;SDS011;40937;53.594;10.034;2022-11-20T10:54:54;3.35;;;3.15;;
55037;SDS011;40937;53.594;10.034;2022-11-20T10:57:34;3.08;;;2.88;;
55037;SDS011;40937;53.594;10.034;2022-11-20T11:00:13;3.00;;;2.80;;
55037;SDS011;40937;53.594;10.034;2022-11-20T11:02:43;2.85;;;2.65;;
55037;SDS011;40937;53.594;10.034;2022-11-20T11:05:21;3.13;;;2.92;;
55037;SDS011;40937;53.594;10.034;2022-11-20T11:07:57;3.13;;;2.83;;
55037;SDS011;40937;53.594;10.034;2022-11-20T11:10:28;3.30;;;3.10;;
55037;SDS011;40937;53.594;10.034;2022-11-20T11:13:00;3.53;;;3.22;;
55037;SDS011;40937;53.594;10.034;2022-11-20T11:15:27;3.58;;;3.38;;
55037;SDS011;40937;53.594;10.034;2022-11-20T11:17:56;2.92;;;2.72;;
55037;SDS011;40937;53.594;10.034;2022-11-20T11:20:24;2.83;;;2.63;;
55037;SDS011;40937;53.594;10.034;2022-11-20T11:22:52;3.03;;;2.78;;
55037;SDS011;40937;53.594;10.034;2022-11-20T11:25:27;2.95;;;2.75;;
55037;SDS011;40937;53.594;10.034;2022-11-20T11:27:56;3.38;;;3.08;;
55037;SDS011;40937;53.594;10.034;2022-11-20T11:30:25;3.40;;;3.10;;
55037;SDS011;40937;53.594;10.034;2022-11-20T11:33:03;2.80;;;2.60;;
55037;SDS011;40937;53.594;10.034;2022-11-20T11:35:38;2.95;;;2.75;;
55037;SDS011;40937;53.594;10.034;2022-11-20T11:38:14;2.45;;;2.35;;
55037;SDS011;40937;53.594;10.034;2022-11-20T11:40:43;4.05;;;2.78;;
55037;SDS011;40937;53.594;10.034;2022-11-20T11:43:19;2.45;;;2.30;;
55037;SDS011;40937;53.594;10.034;2022-11-20T11:46:07;2.87;;;2.67;;
55037;SDS011;40937;53.594;10.034;2022-11-20T11:48:55;7.88;;;2.60;;
55037;SDS011;40937;53.594;10.034;2022-11-20T11:51:27;6.28;;;2.13;;
55037;SDS011;40937;53.594;10.034;2022-11-20T11:53:58;1.95;;;1.85;;
55037;SDS011;40937;53.594;10.034;2022-11-20T11:56:29;21.05;;;2.53;;
55037;SDS011;40937;53.594;10.034;2022-11-20T11:59:00;13.88;;;2.60;;
55037;SDS011;40937;53.594;10.034;2022-11-20T12:01:37;2.63;;;2.22;;
55037;SDS011;40937;53.594;10.034;2022-11-20T12:04:14;19.35;;;2.35;;
55037;SDS011;40937;53.594;10.034;2022-11-20T12:07:03;8.90;;;2.33;;
55037;SDS011;40937;53.594;10.034;2022-11-20T12:14:00;1.95;;;1.85;;
55037;SDS011;40937;53.594;10.034;2022-11-20T12:16:37;1.88;;;1.77;;
55037;SDS011;40937;53.594;10.034;2022-11-20T12:19:07;2.20;;;2.00;;
55037;SDS011;40937;53.594;10.034;2022-11-20T12:21:40;2.97;;;1.55;;
55037;SDS011;40937;53.594;10.034;2022-11-20T12:24:29;1.90;;;1.80;;
55037;SDS011;40937;53.594;10.034;2022-11-20T12:27:08;2.05;;;1.95;;
55037;SDS011;40937;53.594;10.034;2022-11-20T12:30:07;2.13;;;2.03;;
55037;SDS011;40937;53.594;10.034;2022-11-20T12:32:42;2.30;;;2.20;;
55037;SDS011;40937;53.594;10.034;2022-11-20T12:35:25;1.88;;;1.77;;
55037;SDS011;40937;53.594;10.034;2022-11-20T12:38:09;1.90;;;1.80;;
55037;SDS011;40937;53.594;10.034;2022-11-20T12:40:56;2.30;;;2.20;;
55037;SDS011;40937;53.594;10.034;2022-11-20T12:43:34;4.63;;;2.03;;
55037;SDS011;40937;53.594;10.034;2022-11-20T12:46:27;2.00;;;1.90;;
55037;SDS011;40937;53.594;10.034;2022-11-20T12:51:58;1.93;;;1.83;;
55037;SDS011;40937;53.594;10.034;2022-11-20T12:57:32;2.03;;;1.92;;
55037;SDS011;40937;53.594;10.034;2022-11-20T13:00:09;2.30;;;2.20;;
55037;SDS011;40937;53.594;10.034;2022-11-20T13:02:52;2.47;;;1.70;;
55037;SDS011;40937;53.594;10.034;2022-11-20T13:05:31;2.38;;;2.17;;
55037;SDS011;40937;53.594;10.034;2022-11-20T13:08:07;1.90;;;1.80;;
55037;SDS011;40937;53.594;10.034;2022-11-20T13:10:42;2.20;;;1.85;;
55037;SDS011;40937;53.594;10.034;2022-11-20T13:13:19;2.40;;;2.20;;
55037;SDS011;40937;53.594;10.034;2022-11-20T13:15:54;2.10;;;2.00;;
55037;SDS011;40937;53.594;10.034;2022-11-20T13:18:26;2.08;;;1.98;;
55037;SDS011;40937;53.594;10.034;2022-11-20T13:20:54;1.73;;;1.63;;
55037;SDS011;40937;53.594;10.034;2022-11-20T13:23:24;2.20;;;2.05;;
55037;SDS011;40937;53.594;10.034;2022-11-20T13:26:02;2.00;;;1.90;;
55037;SDS011;40937;53.594;10.034;2022-11-20T13:28:41;2.35;;;2.25;;
55037;SDS011;40937;53.594;10.034;2022-11-20T13:31:09;2.47;;;2.38;;
55037;SDS011;40937;53.594;10.034;2022-11-20T13:33:51;1.98;;;1.88;;
55037;SDS011;40937;53.594;10.034;2022-11-20T13:36:22;2.00;;;1.90;;
55037;SDS011;40937;53.594;10.034;2022-11-20T13:38:52;2.55;;;2.30;;
55037;SDS011;40937;53.594;10.034;2022-11-20T13:41:24;2.00;;;1.90;;
55037;SDS011;40937;53.594;10.034;2022-11-20T13:44:05;1.90;;;1.80;;
55037;SDS011;40937;53.594;10.034;2022-11-20T13:46:39;3.50;;;2.10;;
55037;SDS011;40937;53.594;10.034;2022-11-20T13:49:09;1.80;;;1.70;;
55037;SDS011;40937;53.594;10.034;2022-11-20T13:51:43;1.90;;;1.67;;
55037;SDS011;40937;53.594;10.034;2022-11-20T13:57:27;2.33;;;2.10;;
55037;SDS011;40937;53.594;10.034;2022-11-20T14:00:12;2.38;;;2.17;;
55037;SDS011;40937;53.594;10.034;2022-11-20T14:02:40;2.17;;;2.08;;
55037;SDS011;40937;53.594;10.034;2022-11-20T14:05:14;2.60;;;2.40;;
55037;SDS011;40937;53.594;10.034;2022-11-20T14:07:45;2.90;;;2.70;;
55037;SDS011;40937;53.594;10.034;2022-11-20T14:10:22;2.00;;;1.90;;
55037;SDS011;40937;53.594;10.034;2022-11-20T14:12:51;2.35;;;2.15;;
55037;SDS011;40937;53.594;10.034;2022-11-20T14:15:27;2.30;;;2.20;;
55037;SDS011;40937;53.594;10.034;2022-11-20T14:17:55;1.98;;;1.88;;
55037;SDS011;40937;53.594;10.034;2022-11-20T14:20:23;2.10;;;2.00;;
55037;SDS011;40937;53.594;10.034;2022-11-20T14:22:53;2.20;;;2.10;;
55037;SDS011;40937;53.594;10.034;2022-11-20T14:25:21;3.92;;;2.30;;
55037;SDS011;40937;53.594;10.034;2022-11-20T14:27:52;2.90;;;2.70;;
55037;SDS011;40937;53.594;10.034;2022-11-20T14:30:22;2.80;;;2.60;;
55037;SDS011;40937;53.594;10.034;2022-11-20T14:32:53;2.53;;;2.33;;
55037;SDS011;40937;53.594;10.034;2022-11-20T14:35:23;6.35;;;2.72;;
55037;SDS011;40937;53.594;10.034;2022-11-20T14:37:51;2.70;;;2.50;;
55037;SDS011;40937;53.594;10.034;2022-11-20T14:40:26;2.67;;;2.47;;
55037;SDS011;40937;53.594;10.034;2022-11-20T14:42:54;2.53;;;2.33;;
55037;SDS011;40937;53.594;10.034;2022-11-20T14:45:22;2.28;;;1.98;;
55037;SDS011;40937;53.594;10.034;2022-11-20T14:47:52;2.80;;;2.60;;
55037;SDS011;40937;53.594;10.034;2022-11-20T14:50:22;3.10;;;2.90;;
55037;SDS011;40937;53.594;10.034;2022-11-20T14:52:50;2.25;;;2.10;;
55037;SDS011;40937;53.594;10.034;2022-11-20T14:55:25;3.53;;;1.98;;
55037;SDS011;40937;53.594;10.034;2022-11-20T14:57:56;2.45;;;2.33;;
55037;SDS011;40937;53.594;10.034;2022-11-20T15:00:23;4.35;;;2.45;;
55037;SDS011;40937;53.594;10.034;2022-11-20T15:02:52;2.67;;;2.55;;
55037;SDS011;40937;53.594;10.034;2022-11-20T15:05:19;2.42;;;2.22;;
55037;SDS011;40937;53.594;10.034;2022-11-20T15:07:48;2.72;;;2.47;;
55037;SDS011;40937;53.594;10.034;2022-11-20T15:10:21;2.92;;;2.58;;
55037;SDS011;40937;53.594;10.034;2022-11-20T15:12:49;2.40;;;2.20;;
55037;SDS011;40937;53.594;10.034;2022-11-20T15:15:18;3.67;;;2.63;;
55037;SDS011;40937;53.594;10.034;2022-11-20T15:17:47;2.85;;;2.65;;
55037;SDS011;40937;53.594;10.034;2022-11-20T15:20:16;5.05;;;2.80;;